首页
METAR-TAF:

METAR-TAF

机场 :

Land's End, 英格兰

纬度: 50-06-10N, 经度: 005-40-14W, 海拔: 122米

当前天气观测

该预报发布于21分钟前的15:20 UTC
风速5节,风向北转西北
温度 8°C
湿度 61%
气压 1047 hPa
能见度10公里或以上
1500米以下无云,无积雨云

METAR: EGHC 201520Z 34005KT CAVOK 08/01 Q1047

时间: 15:41 (15:41 UTC)

预报

该预报发布于1小时和35分钟前的14:06 UTC
预报有效从20日的 15点(UTC)到 20日的 18点(UTC)
风速3节,风向多变
能见度10公里或以上
1500米以下无云,无积雨云

TAF: EGHC 201406Z 2015/2018 VRB03KT CAVOK

超过4000个机场的气象观测和天气预报(METAR&TAF报告)。

可查询的气象台以黄色和红色小点在地图上表示。

将鼠标移到小点上方,可查看气象台名称。

然后点击查看天气观测和预报。

如需切换地图:点击带黑十字的绿色按钮放大地图;点击带横线的绿色按钮缩小地图;或者点击绿色箭头查看邻近地区的地图。


METAR-TAF: